Sullivan, MO (63080)

8:22 AM CDT on April 19, 2018 (GMT -0500)
The Compound | | Change Station
Active Advisory: Frost Advisory

Elev 968 ft 38.21 °N, 91.16 °W | Updated 6 seconds ago

Overcast
Overcast
36.1 °F
Feels Like 36 °F
N
2.7
Wind Variable Wind from West

Today
High -- | Low -- °F
--% Chance of Precip.
Yesterday
High -- | Low -- °F
Precip. -- in
Pressure 30.34 in
Visibility 10.0 miles
Clouds Mostly Cloudy 2600 ft
Overcast 4300 ft
Windchill 36 °F
Dew Point 29 °F
Humidity 74%
Rainfall 0.00 in
Snow Depth Not available.
6:23 AM 7:44 PM
Waxing Crescent, 15% visible
METAR KFYG 191255Z AUTO 00000KT 10SM BKN026 OVC043 03/M03 A3034 RMK AO2
Pressure 30.34 in
Visibility 10.0 miles
Clouds Mostly Cloudy 2600 ft
Overcast 4300 ft
Windchill 36 °F
Dew Point 29 °F
Humidity 74%
Rainfall 0.00 in
Snow Depth Not available.
6:23 AM 7:44 PM
Waxing Crescent, 15% visible
METAR KFYG 191255Z AUTO 00000KT 10SM BKN026 OVC043 03/M03 A3034 RMK AO2

Get Your Daily Forecast Email!

Thanks for signing up!

Be on the lookout for a verification email in your inbox.

You'll start receiving severe weather alerts in your inbox..

×

10-Day Weather Forecast

Almanac

Astronomy

Apr. 19, 2018 Rise Set
Actual Time
Civil Twilight
Nautical Twilight
Astronomical Twilight
Moon
Length of Visible Light
Length of Day
Tomorrow will be .
, % of the Moon is Illuminated

Today's Extremes

State Highs State Lows

Community

WunderPhotos

Category 6

Welcome to Category 6. This is the collective home for Weather Underground's featured writeups by Dr. Jeff Masters (right), Bob Henson (left), Chris Burt, and other regular contributors.

Nearby

Air Quality

  Air Quality AQ Index Pollutant
Not available.

Snow Depth

Station Depth Elevation

Earthquake Activity

City Distance Mag. Time & Date
Minimum magnitude displayed is 2.5.

Coastal Water Temperatures

Place Temperature

Stations

Nearby Weather Stations

Station Location Temp. Windchill Dew Point Humidity Wind Precip. Elev Updated Type
                   

Watches & Warnings

Frost Advisory
Issued: 2:46 AM CDT Apr. 19, 2018 – National Weather Service

... Frost advisory in effect from 1 am to 9 am CDT Friday...

The National Weather Service in Saint Louis has issued a frost
advisory, which is in effect from 1 am to 9 am CDT Friday.

* Timing... late tonight and early Friday morning.

* Temperatures... low temperatures will be in the lower to mid 30s.

* Impacts... sensitive plants and trees may be damaged or killed.

Precautionary/preparedness actions...

A frost advisory means that widespread frost is expected. Those
with agricultural interests in the advisory area should protect
tender vegetation. Also, potted plants normally left outdoors
should be covered or brought inside away from the cold.



Britt